createdAt,value
2022-11-21T00:01:34.588Z,94147.50
2022-11-21T00:04:01.320Z,94157.09
2022-11-21T00:06:27.870Z,94146.06
2022-11-21T00:08:55.387Z,94140.28
2022-11-21T00:11:21.924Z,94142.66
2022-11-21T00:13:48.718Z,94135.03
2022-11-21T00:16:17.396Z,94131.63
2022-11-21T00:18:44.423Z,94123.22
2022-11-21T00:21:12.350Z,94116.41
2022-11-21T00:23:39.132Z,94105.47
2022-11-21T00:26:06.277Z,94098.41
2022-11-21T00:28:32.893Z,94098.88
2022-11-21T00:30:59.368Z,94098.31
2022-11-21T00:33:27.244Z,94105.94
2022-11-21T00:35:53.794Z,94093.88
2022-11-21T00:38:20.508Z,94098.09
2022-11-21T00:40:48.023Z,94096.25
2022-11-21T00:43:14.740Z,94098.09
2022-11-21T00:45:41.236Z,94104.59
2022-11-21T00:48:07.750Z,94113.00
2022-11-21T00:50:35.644Z,94099.13
2022-11-21T00:53:02.275Z,94113.56
2022-11-21T00:55:28.789Z,94114.13
2022-11-21T00:57:55.319Z,94112.03
2022-11-21T01:00:21.931Z,94107.63
2022-11-21T01:02:48.493Z,94103.16
2022-11-21T01:05:15.058Z,94110.75
2022-11-21T01:07:43.084Z,94117.34
2022-11-21T01:10:09.877Z,94122.94
2022-11-21T01:12:36.430Z,94131.88
2022-11-21T01:15:03.270Z,94136.88
2022-11-21T01:17:32.245Z,94123.78
2022-11-21T01:19:58.764Z,94121.47
2022-11-21T01:22:25.357Z,94133.56
2022-11-21T01:24:53.262Z,94127.50
2022-11-21T01:27:19.905Z,94119.97
2022-11-21T01:29:46.609Z,94114.75
2022-11-21T01:32:13.150Z,94115.75
2022-11-21T01:34:39.739Z,94110.53
2022-11-21T01:37:06.297Z,94112.94
2022-11-21T01:39:33.035Z,94107.00
2022-11-21T01:42:01.165Z,94112.75
2022-11-21T01:44:45.453Z,94100.72
2022-11-21T01:47:12.858Z,94103.31
2022-11-21T01:49:40.913Z,94090.22
2022-11-21T01:52:09.451Z,94090.94
2022-11-21T01:54:38.141Z,94079.69
2022-11-21T01:57:08.451Z,94074.22
2022-11-21T01:59:38.554Z,94072.38
2022-11-21T02:02:06.900Z,94074.75
2022-11-21T02:04:33.984Z,94075.00
2022-11-21T02:07:02.128Z,94080.25
2022-11-21T02:09:30.075Z,94088.88
2022-11-21T02:11:59.051Z,94084.44
2022-11-21T02:14:28.000Z,94089.66
2022-11-21T02:16:56.792Z,94075.56
2022-11-21T02:19:28.580Z,94084.44
2022-11-21T02:21:58.716Z,94065.31
2022-11-21T02:24:30.433Z,94071.34
2022-11-21T02:26:59.820Z,94076.56
2022-11-21T02:29:27.160Z,94066.09
2022-11-21T02:31:53.723Z,94072.44
2022-11-21T02:34:20.382Z,94072.13
2022-11-21T02:36:47.595Z,94056.09
2022-11-21T02:39:16.303Z,94057.72
2022-11-21T02:41:46.106Z,94056.88
2022-11-21T02:44:18.400Z,94048.47
2022-11-21T02:46:50.115Z,94050.28
2022-11-21T02:49:19.602Z,94052.09
2022-11-21T02:51:46.142Z,94051.88
2022-11-21T02:54:12.739Z,94049.25
2022-11-21T02:56:39.358Z,94047.22
2022-11-21T02:59:05.883Z,94042.53
2022-11-21T03:01:34.150Z,94030.53
2022-11-21T03:04:00.799Z,94029.75
2022-11-21T03:06:27.311Z,94017.13
2022-11-21T03:08:53.991Z,94020.06
2022-11-21T03:11:20.667Z,94005.13
2022-11-21T03:13:47.203Z,93994.09
2022-11-21T03:16:13.870Z,93998.53
2022-11-21T03:18:41.953Z,94009.81
2022-11-21T03:21:08.510Z,93989.91
2022-11-21T03:23:35.021Z,93979.66
2022-11-21T03:26:01.768Z,93982.53
2022-11-21T03:28:28.301Z,93970.78
2022-11-21T03:30:54.805Z,93979.16
2022-11-21T03:33:21.460Z,93964.25
2022-11-21T03:35:49.405Z,93971.31
2022-11-21T03:38:15.916Z,93965.28
2022-11-21T03:40:42.633Z,93956.63
2022-11-21T03:43:09.340Z,93969.25
2022-11-21T03:45:35.958Z,93969.78
2022-11-21T03:48:02.650Z,93970.84
2022-11-21T03:50:29.196Z,93969.00
2022-11-21T03:52:57.300Z,93957.00
2022-11-21T03:55:24.097Z,93968.28
2022-11-21T03:57:50.633Z,93964.63
2022-11-21T04:00:17.306Z,93964.38
2022-11-21T04:02:43.953Z,93976.72
2022-11-21T04:05:10.452Z,93970.47
2022-11-21T04:07:37.064Z,93971.75
2022-11-21T04:10:05.497Z,93977.78
2022-11-21T04:12:32.135Z,93974.09
2022-11-21T04:14:58.783Z,93958.09
2022-11-21T04:17:25.495Z,93959.59
2022-11-21T04:19:52.068Z,93956.47
2022-11-21T04:22:18.585Z,93958.22
2022-11-21T04:24:45.063Z,93954.19
2022-11-21T04:27:13.041Z,93953.38
2022-11-21T04:29:39.675Z,93959.19
2022-11-21T04:32:06.222Z,93939.47
2022-11-21T04:34:32.956Z,93932.66
2022-11-21T04:36:59.520Z,93929.28
2022-11-21T04:39:26.106Z,93919.56
2022-11-21T04:41:52.667Z,93918.06
2022-11-21T04:44:20.648Z,93907.66
2022-11-21T04:46:47.348Z,93892.25
2022-11-21T04:49:14.049Z,93898.28
2022-11-21T04:51:40.818Z,93895.66
2022-11-21T04:54:07.336Z,93900.63
2022-11-21T04:56:33.928Z,93903.50
2022-11-21T04:59:00.536Z,93904.53
2022-11-21T05:01:28.891Z,93900.63
2022-11-21T05:03:55.648Z,93897.78
2022-11-21T05:06:22.539Z,93893.31
2022-11-21T05:08:52.724Z,93899.28
2022-11-21T05:11:39.169Z,93903.19
2022-11-21T05:14:05.718Z,93906.81
2022-11-21T05:16:34.268Z,93911.94
2022-11-21T05:19:01.078Z,93910.06
2022-11-21T05:21:27.622Z,93910.81
2022-11-21T05:23:54.286Z,93905.50
2022-11-21T05:26:20.807Z,93910.44
2022-11-21T05:28:48.641Z,93914.56
2022-11-21T05:31:15.170Z,93911.41
2022-11-21T05:33:43.108Z,93915.78
2022-11-21T05:36:09.701Z,93917.84
2022-11-21T05:38:36.325Z,93902.94
2022-11-21T05:41:02.948Z,93905.06
2022-11-21T05:43:47.980Z,93914.25
2022-11-21T05:46:15.777Z,93935.25
2022-11-21T05:48:43.930Z,93943.38
2022-11-21T05:51:10.645Z,93938.22
2022-11-21T05:53:37.328Z,93934.00
2022-11-21T05:56:05.622Z,93932.13
2022-11-21T05:58:32.260Z,93916.88
2022-11-21T06:01:01.021Z,93928.59
2022-11-21T06:03:30.631Z,93931.44
2022-11-21T06:06:03.107Z,93940.06
2022-11-21T06:08:31.122Z,93936.38
2022-11-21T06:10:57.663Z,93947.06
2022-11-21T06:13:24.418Z,93934.13
2022-11-21T06:15:53.296Z,93927.59
2022-11-21T06:18:20.419Z,93927.81
2022-11-21T06:20:47.011Z,93928.59
2022-11-21T06:23:15.365Z,93937.22
2022-11-21T06:25:42.137Z,93935.66
2022-11-21T06:28:08.820Z,93932.25
2022-11-21T06:30:35.464Z,93943.50
2022-11-21T06:33:03.399Z,93946.13
2022-11-21T06:35:29.998Z,93947.97
2022-11-21T06:37:57.608Z,93962.88
2022-11-21T06:40:25.483Z,93961.59
2022-11-21T06:42:52.072Z,93970.25
2022-11-21T06:45:18.605Z,93982.06
2022-11-21T06:47:45.133Z,93994.09
2022-11-21T06:50:11.697Z,94002.75
2022-11-21T06:52:38.294Z,94014.00
2022-11-21T06:55:06.803Z,94014.47
2022-11-21T06:57:34.723Z,94015.22
2022-11-21T07:00:01.709Z,94032.56
2022-11-21T07:02:28.506Z,94035.25
2022-11-21T07:04:55.877Z,94037.13
2022-11-21T07:07:22.538Z,94027.31
2022-11-21T07:09:49.307Z,94041.31
2022-11-21T07:12:34.784Z,94029.28
2022-11-21T07:15:02.644Z,94030.63
2022-11-21T07:17:29.666Z,94029.59
2022-11-21T07:19:56.188Z,94035.16
2022-11-21T07:22:22.713Z,94036.50
2022-11-21T07:24:49.205Z,94044.88
2022-11-21T07:27:15.704Z,94044.56
2022-11-21T07:29:42.291Z,94048.13
2022-11-21T07:32:10.209Z,94046.69
2022-11-21T07:34:36.854Z,94049.91
2022-11-21T07:37:05.340Z,94050.38
2022-11-21T07:39:32.040Z,94056.88
2022-11-21T07:41:58.578Z,94051.53
2022-11-21T07:44:25.114Z,94055.09
2022-11-21T07:46:53.796Z,94051.66
2022-11-21T07:49:21.832Z,94060.06
2022-11-21T07:51:48.326Z,94070.22
2022-11-21T07:54:14.892Z,94067.19
2022-11-21T07:56:41.462Z,94061.03
2022-11-21T07:59:07.976Z,94061.50
2022-11-21T08:01:34.525Z,94061.75
2022-11-21T08:04:01.079Z,94066.19
2022-11-21T08:06:29.006Z,94056.84
2022-11-21T08:08:55.715Z,94034.47
2022-11-21T08:11:22.390Z,94032.16
2022-11-21T08:13:48.994Z,94039.88
2022-11-21T08:16:15.769Z,94034.72
2022-11-21T08:18:42.320Z,94026.97
2022-11-21T08:21:08.822Z,94033.66
2022-11-21T08:23:36.747Z,94035.09
2022-11-21T08:26:03.276Z,94026.19
2022-11-21T08:28:29.790Z,94013.84
2022-11-21T08:30:56.474Z,94019.16
2022-11-21T08:33:23.180Z,94011.84
2022-11-21T08:35:49.701Z,93999.34
2022-11-21T08:38:16.256Z,93997.59
2022-11-21T08:40:44.232Z,94010.38
2022-11-21T08:43:10.943Z,94005.81
2022-11-21T08:45:38.532Z,94005.00
2022-11-21T08:48:08.853Z,94011.63
2022-11-21T08:50:35.437Z,94013.78
2022-11-21T08:53:02.572Z,94014.81
2022-11-21T08:55:29.340Z,94006.78
2022-11-21T08:57:57.314Z,94009.69
2022-11-21T09:00:24.233Z,94004.56
2022-11-21T09:02:50.775Z,94000.50
2022-11-21T09:05:17.401Z,94000.94
2022-11-21T09:07:44.016Z,94000.00
2022-11-21T09:10:11.031Z,93994.50
2022-11-21T09:12:37.542Z,94004.78
2022-11-21T09:15:24.561Z,94003.44
2022-11-21T09:18:03.175Z,94009.31
2022-11-21T09:20:29.778Z,94001.59
2022-11-21T09:22:56.398Z,94006.59
2022-11-21T09:25:23.078Z,94005.19
2022-11-21T09:27:49.601Z,93997.94
2022-11-21T09:30:17.682Z,93993.41
2022-11-21T09:32:44.350Z,93991.44
2022-11-21T09:35:12.992Z,93984.00
2022-11-21T09:37:40.187Z,93996.22
2022-11-21T09:40:07.506Z,94003.50
2022-11-21T09:43:00.562Z,94003.69
2022-11-21T09:45:31.334Z,94003.69
2022-11-21T09:47:57.936Z,94004.41
2022-11-21T09:50:27.384Z,94000.69
2022-11-21T09:52:56.396Z,94006.44
2022-11-21T09:55:26.214Z,93999.84
2022-11-21T09:57:53.214Z,94013.09
2022-11-21T10:00:20.970Z,93995.66
2022-11-21T10:02:49.155Z,93987.69
2022-11-21T10:05:16.058Z,93989.72
2022-11-21T10:07:43.356Z,93995.91
2022-11-21T10:10:17.552Z,93985.16
2022-11-21T10:12:51.369Z,93983.75
2022-11-21T10:15:29.346Z,93980.34
2022-11-21T10:18:08.469Z,93967.22
2022-11-21T10:20:45.672Z,93965.91
2022-11-21T10:23:24.486Z,93956.41
2022-11-21T10:25:55.236Z,93943.63
2022-11-21T10:28:28.036Z,93942.25
2022-11-21T10:30:56.185Z,93941.19
2022-11-21T10:33:26.820Z,93938.13
2022-11-21T10:35:55.708Z,93940.53
2022-11-21T10:38:24.222Z,93932.44
2022-11-21T10:40:53.885Z,93935.28
2022-11-21T10:43:45.063Z,93932.44
2022-11-21T10:46:11.662Z,93927.72
2022-11-21T10:48:39.636Z,93926.63
2022-11-21T10:51:14.869Z,93934.69
2022-11-21T10:54:04.594Z,93935.50
2022-11-21T10:56:35.093Z,93937.09
2022-11-21T10:59:11.349Z,93936.81
2022-11-21T11:01:38.421Z,93919.47
2022-11-21T11:04:43.799Z,93918.41
2022-11-21T11:07:20.019Z,93897.81
2022-11-21T11:09:47.620Z,93903.50
2022-11-21T11:12:23.011Z,93899.34
2022-11-21T11:14:50.834Z,93893.84
2022-11-21T11:17:25.696Z,93895.69
2022-11-21T11:20:00.714Z,93898.34
2022-11-21T11:22:28.397Z,93890.72
2022-11-21T11:24:59.061Z,93882.06
2022-11-21T11:27:27.678Z,93879.69
2022-11-21T11:29:54.208Z,93872.13
2022-11-21T11:32:22.143Z,93861.09
2022-11-21T11:34:57.301Z,93855.94
2022-11-21T11:37:34.513Z,93848.09
2022-11-21T11:40:10.998Z,93845.78
2022-11-21T11:43:12.691Z,93845.00
2022-11-21T11:46:07.747Z,93843.19
2022-11-21T11:49:03.240Z,93843.56
2022-11-21T11:51:28.130Z,93838.72
2022-11-21T11:54:01.216Z,93827.13
2022-11-21T11:56:30.038Z,93816.88
2022-11-21T11:59:01.624Z,93815.41
2022-11-21T12:01:33.954Z,93817.31
2022-11-21T12:04:04.413Z,93810.72
2022-11-21T12:07:18.091Z,93804.66
2022-11-21T12:09:28.480Z,93797.63
2022-11-21T12:12:09.508Z,93783.59
2022-11-21T12:14:58.874Z,93780.25
2022-11-21T12:17:27.434Z,93770.72
2022-11-21T12:19:54.614Z,93770.94
2022-11-21T12:22:21.221Z,93758.53
2022-11-21T12:24:49.228Z,93750.78
2022-11-21T12:27:20.613Z,93749.19
2022-11-21T12:29:55.449Z,93738.00
2022-11-21T12:32:30.586Z,93735.34
2022-11-21T12:35:04.076Z,93736.78
2022-11-21T12:37:37.406Z,93728.31
2022-11-21T12:40:11.299Z,93717.69
2022-11-21T12:42:50.418Z,93711.63
2022-11-21T12:45:29.070Z,93711.34
2022-11-21T12:48:26.648Z,93712.63
2022-11-21T12:51:13.854Z,93714.03
2022-11-21T12:54:05.086Z,93709.81
2022-11-21T12:56:40.198Z,93714.44
2022-11-21T12:59:07.708Z,93713.75
2022-11-21T13:01:39.139Z,93712.38
2022-11-21T13:04:08.767Z,93715.47
2022-11-21T13:06:38.916Z,93711.81
2022-11-21T13:09:08.051Z,93711.31
2022-11-21T13:11:59.464Z,93701.00
2022-11-21T13:14:39.229Z,93706.41
2022-11-21T13:17:14.294Z,93694.81
2022-11-21T13:19:45.239Z,93686.78
2022-11-21T13:22:26.741Z,93685.84
2022-11-21T13:24:56.265Z,93676.44
2022-11-21T13:27:27.363Z,93664.94
2022-11-21T13:30:12.759Z,93658.75
2022-11-21T13:32:39.782Z,93654.63
2022-11-21T13:35:32.645Z,93645.47
2022-11-21T13:38:00.870Z,93640.53
2022-11-21T13:40:37.536Z,93633.97
2022-11-21T13:43:38.756Z,93627.94
2022-11-21T13:46:05.782Z,93623.22
2022-11-21T13:48:52.758Z,93616.38
2022-11-21T13:51:35.128Z,93617.44
2022-11-21T13:54:09.294Z,93614.81
2022-11-21T13:56:40.098Z,93611.66
2022-11-21T13:59:15.288Z,93600.13
2022-11-21T14:01:53.219Z,93595.94
2022-11-21T14:04:32.790Z,93589.63
2022-11-21T14:07:14.257Z,93585.69
2022-11-21T14:09:48.292Z,93579.66
2022-11-21T14:12:20.906Z,93578.88
2022-11-21T14:14:51.486Z,93563.63
2022-11-21T14:17:34.182Z,93564.97
2022-11-21T14:20:09.693Z,93557.06
2022-11-21T14:22:44.983Z,93553.66
2022-11-21T14:25:15.805Z,93558.63
2022-11-21T14:27:48.061Z,93566.25
2022-11-21T14:30:32.866Z,93553.91
2022-11-21T14:33:14.240Z,93549.19
2022-11-21T14:35:40.770Z,93546.03
2022-11-21T14:38:07.267Z,93537.13
2022-11-21T14:40:34.065Z,93540.53
2022-11-21T14:43:03.617Z,93532.66
2022-11-21T14:45:30.139Z,93531.59
2022-11-21T14:47:58.289Z,93527.41
2022-11-21T14:50:25.857Z,93519.78
2022-11-21T14:52:57.334Z,93512.69
2022-11-21T14:55:30.725Z,93500.09
2022-11-21T14:57:59.476Z,93501.16
2022-11-21T15:03:19.336Z,93495.91
2022-11-21T15:06:04.988Z,93495.66
2022-11-21T15:11:20.757Z,93488.28
2022-11-21T15:14:14.480Z,93480.66
2022-11-21T15:16:36.060Z,93474.34
2022-11-21T15:19:08.233Z,93463.59
2022-11-21T15:21:34.842Z,93451.78
2022-11-21T15:24:15.376Z,93458.06
2022-11-21T15:26:42.112Z,93452.03
2022-11-21T15:29:17.988Z,93437.09
2022-11-21T15:31:46.133Z,93429.75
2022-11-21T15:34:35.523Z,93429.44
2022-11-21T15:37:04.946Z,93416.09
2022-11-21T15:39:32.652Z,93408.22
2022-11-21T15:42:14.193Z,93409.00
2022-11-21T15:44:56.461Z,93409.25
2022-11-21T15:47:23.080Z,93405.84
2022-11-21T15:49:51.504Z,93402.41
2022-11-21T15:52:18.245Z,93410.75
2022-11-21T15:54:44.900Z,93414.16
2022-11-21T15:57:11.604Z,93414.38
2022-11-21T15:59:38.649Z,93410.16
2022-11-21T16:02:05.745Z,93409.38
2022-11-21T16:04:33.390Z,93399.66
2022-11-21T16:07:01.323Z,93398.06
2022-11-21T16:09:31.911Z,93393.81
2022-11-21T16:11:58.429Z,93386.75
2022-11-21T16:14:24.930Z,93377.03
2022-11-21T16:16:51.462Z,93365.47
2022-11-21T16:19:18.003Z,93367.06
2022-11-21T16:21:44.651Z,93361.00
2022-11-21T16:24:13.266Z,93352.88
2022-11-21T16:26:40.037Z,93357.56
2022-11-21T16:29:06.827Z,93347.38
2022-11-21T16:31:33.748Z,93341.06
2022-11-21T16:34:00.794Z,93340.03
2022-11-21T16:36:28.298Z,93334.25
2022-11-21T16:38:55.104Z,93334.75
2022-11-21T16:41:23.628Z,93325.84
2022-11-21T16:43:51.342Z,93329.22
2022-11-21T16:46:18.641Z,93325.78
2022-11-21T16:48:48.166Z,93321.34
2022-11-21T16:51:16.021Z,93318.41
2022-11-21T16:53:43.089Z,93306.13
2022-11-21T16:56:10.338Z,93294.88
2022-11-21T16:58:38.958Z,93301.94
2022-11-21T17:01:13.070Z,93295.63
2022-11-21T17:03:39.836Z,93299.56
2022-11-21T17:06:06.950Z,93290.41
2022-11-21T17:08:33.764Z,93288.03
2022-11-21T17:11:10.667Z,93285.91
2022-11-21T17:13:39.184Z,93281.41
2022-11-21T17:16:06.017Z,93271.97
2022-11-21T17:18:32.791Z,93271.16
2022-11-21T17:20:59.380Z,93261.97
2022-11-21T17:23:25.858Z,93258.28
2022-11-21T17:25:52.357Z,93256.94
2022-11-21T17:28:19.208Z,93246.97
2022-11-21T17:30:47.278Z,93252.22
2022-11-21T17:33:13.810Z,93247.22
2022-11-21T17:35:40.300Z,93240.44
2022-11-21T17:38:06.845Z,93243.03
2022-11-21T17:40:33.381Z,93233.88
2022-11-21T17:43:00.249Z,93219.78
2022-11-21T17:45:26.730Z,93216.34
2022-11-21T17:47:54.812Z,93215.06
2022-11-21T17:50:21.426Z,93209.84
2022-11-21T17:52:47.917Z,93205.91
2022-11-21T17:55:14.477Z,93206.16
2022-11-21T17:57:40.993Z,93197.78
2022-11-21T18:00:08.518Z,93202.25
2022-11-21T18:02:35.145Z,93198.53
2022-11-21T18:05:03.250Z,93192.25
2022-11-21T18:07:30.679Z,93190.44
2022-11-21T18:10:14.205Z,93188.06
2022-11-21T18:12:43.774Z,93184.91
2022-11-21T18:15:10.579Z,93177.50
2022-11-21T18:17:37.332Z,93168.38
2022-11-21T18:20:05.815Z,93165.22
2022-11-21T18:22:32.454Z,93164.94
2022-11-21T18:24:58.939Z,93165.44
2022-11-21T18:27:27.965Z,93157.56
2022-11-21T18:29:54.452Z,93140.84
2022-11-21T18:32:20.983Z,93148.63
2022-11-21T18:34:47.503Z,93135.78
2022-11-21T18:37:15.653Z,93127.41
2022-11-21T18:39:42.288Z,93126.91
2022-11-21T18:42:08.866Z,93120.09
2022-11-21T18:44:35.392Z,93111.75
2022-11-21T18:47:01.868Z,93094.03
2022-11-21T18:49:28.776Z,93079.97
2022-11-21T18:51:55.608Z,93083.09
2022-11-21T18:54:23.836Z,93079.94
2022-11-21T18:56:50.397Z,93074.16
2022-11-21T18:59:16.962Z,93074.38
2022-11-21T19:01:43.790Z,93083.28
2022-11-21T19:04:10.503Z,93079.94
2022-11-21T19:06:37.012Z,93076.56
2022-11-21T19:09:03.874Z,93070.06
2022-11-21T19:11:32.382Z,93053.91
2022-11-21T19:14:00.868Z,93052.84
2022-11-21T19:16:30.802Z,93053.31
2022-11-21T19:19:32.524Z,93039.13
2022-11-21T19:21:45.851Z,93041.16
2022-11-21T19:24:13.729Z,93046.13
2022-11-21T19:26:43.572Z,93043.03
2022-11-21T19:29:10.851Z,93050.09
2022-11-21T19:31:43.003Z,93037.09
2022-11-21T19:34:11.553Z,93031.13
2022-11-21T19:36:39.358Z,93027.19
2022-11-21T19:39:06.046Z,93024.03
2022-11-21T19:41:32.566Z,93024.59
2022-11-21T19:44:01.290Z,93032.16
2022-11-21T19:46:28.668Z,93025.09
2022-11-21T19:48:56.010Z,93019.34
2022-11-21T19:51:23.438Z,93010.97
2022-11-21T19:53:50.001Z,93004.97
2022-11-21T19:56:17.864Z,93013.34
2022-11-21T19:58:45.174Z,93002.91
2022-11-21T20:01:14.718Z,93014.91
2022-11-21T20:03:42.728Z,93000.84
2022-11-21T20:06:13.697Z,93000.84
2022-11-21T20:08:40.344Z,93000.03
2022-11-21T20:11:10.892Z,92996.91
2022-11-21T20:13:38.612Z,92980.19
2022-11-21T20:16:05.217Z,92983.06
2022-11-21T20:18:33.495Z,92982.25
2022-11-21T20:21:06.702Z,92992.94
2022-11-21T20:23:33.326Z,92979.34
2022-11-21T20:25:59.852Z,92977.78
2022-11-21T20:28:26.339Z,92973.84
2022-11-21T20:30:52.823Z,92966.50
2022-11-21T20:33:20.532Z,92964.69
2022-11-21T20:35:48.572Z,92969.41
2022-11-21T20:38:17.892Z,92969.66
2022-11-21T20:40:52.038Z,92956.88
2022-11-21T20:43:18.534Z,92968.06
2022-11-21T20:48:33.607Z,92966.69
2022-11-21T20:53:54.293Z,92979.19
2022-11-21T20:56:23.748Z,92966.91
2022-11-21T20:58:50.605Z,92959.63
2022-11-21T21:01:21.052Z,92967.22
2022-11-21T21:03:48.033Z,92972.66
2022-11-21T21:06:16.168Z,92962.22
2022-11-21T21:08:43.153Z,92954.91
2022-11-21T21:11:25.482Z,92964.28
2022-11-21T21:13:57.394Z,92971.59
2022-11-21T21:16:25.618Z,92962.47
2022-11-21T21:18:55.054Z,92965.31
2022-11-21T21:21:24.026Z,92966.34
2022-11-21T21:23:54.675Z,92966.91
2022-11-21T21:26:22.100Z,92972.09
2022-11-21T21:28:48.934Z,92967.41
2022-11-21T21:31:16.316Z,92970.31
2022-11-21T21:33:43.162Z,92967.22
2022-11-21T21:36:10.566Z,92970.34
2022-11-21T21:38:38.881Z,92975.84
2022-11-21T21:41:06.178Z,92975.34
2022-11-21T21:43:33.368Z,92975.63
2022-11-21T21:46:03.815Z,92963.13
2022-11-21T21:48:30.527Z,92961.56
2022-11-21T21:51:00.902Z,92962.59
2022-11-21T21:53:27.423Z,92964.97
2022-11-21T21:55:57.317Z,92965.25
2022-11-21T21:58:23.817Z,92971.28
2022-11-21T22:00:52.402Z,92971.28
2022-11-21T22:03:18.984Z,92974.13
2022-11-21T22:05:45.544Z,92983.50
2022-11-21T22:08:12.054Z,92997.34
2022-11-21T22:10:38.594Z,92983.03
2022-11-21T22:13:06.743Z,92990.53
2022-11-21T22:15:33.266Z,92982.19
2022-11-21T22:17:59.833Z,92999.09
2022-11-21T22:20:26.324Z,92991.78
2022-11-21T22:22:56.339Z,92994.13
2022-11-21T22:25:26.994Z,92983.69
2022-11-21T22:27:53.971Z,92975.88
2022-11-21T22:30:22.426Z,92995.41
2022-11-21T22:32:52.372Z,93013.34
2022-11-21T22:35:18.843Z,92994.25
2022-11-21T22:37:49.018Z,93000.97
2022-11-21T22:40:15.802Z,92994.25
2022-11-21T22:42:42.301Z,92988.25
2022-11-21T22:45:09.721Z,92997.72
2022-11-21T22:47:37.856Z,92989.06
2022-11-21T22:50:04.906Z,92984.41
2022-11-21T22:52:31.546Z,92982.56
2022-11-21T22:54:58.734Z,92992.22
2022-11-21T22:57:26.192Z,92998.72
2022-11-21T22:59:52.705Z,93004.47
2022-11-21T23:02:19.371Z,93002.16
2022-11-21T23:04:47.716Z,92999.31
2022-11-21T23:07:14.482Z,92993.03
2022-11-21T23:09:41.032Z,92985.22
2022-11-21T23:12:07.745Z,92987.06
2022-11-21T23:14:34.209Z,92984.19
2022-11-21T23:17:00.719Z,92988.91
2022-11-21T23:19:27.957Z,92985.22
2022-11-21T23:21:56.167Z,92981.78
2022-11-21T23:24:22.672Z,92998.75
2022-11-21T23:26:49.222Z,92986.81
2022-11-21T23:29:15.690Z,92995.41
2022-11-21T23:31:42.206Z,92994.63
2022-11-21T23:34:11.114Z,92994.38
2022-11-21T23:36:37.651Z,92992.56
2022-11-21T23:39:05.837Z,93001.91
2022-11-21T23:41:32.370Z,93012.84
2022-11-21T23:44:00.034Z,93001.59
2022-11-21T23:46:26.757Z,93006.00
2022-11-21T23:48:53.456Z,92993.28
2022-11-21T23:51:21.032Z,92998.75
2022-11-21T23:53:47.592Z,92996.19
2022-11-21T23:56:15.581Z,92984.47
2022-11-21T23:58:42.050Z,92992.84
